Terminal Aerodrome Forecast
Issued by NWS Wilmington, OH

Home | Current Version | Previous Version | Text Only | Print | Product List | Glossary On
Versions: 1 2 3 4 5 6 7 8 9 10 11 12 13 14 15 16 17 18 19 20 21 22 23
000
FTUS41 KILN 211133
TAFDAY
TAF
KDAY 211133Z 2112/2212 18007KT P6SM OVC200
     FM211500 20009KT P6SM SCT040 OVC200
     FM212200 20007KT P6SM VCSH SCT035 OVC080
     FM220300 21005KT 5SM BR BKN025 OVC035
     FM220600 18004KT 3SM BR OVC015=

USA.gov is the U.S. government's official web portal to all federal, state and local government web resources and services.